(°C)
-1°
(°C)
-0°
-1°
-2°
-3°
-4°
ONO
ONO
ONO
ONO
ONO
ONO
ONO
(km/u)
4-11
4-12
4-12
4-11
4-10
4-10
4-10
(mm)
0
0
0
0
0
0
0
(%)
0
0
0
0
0
0
0

Zonverhoging

/ -22.9°
sun-icon
UV 0
05:50
18:30
Wassende maan (172°)
19:02
04:06

METAR voor 64.6°N 40.72°O (ULAA)

Tijd Voorwaarden Temperatuur/
Dauwpunt
Wind Zicht Weer Wolken Luchtdruk Wijzigen Ruw
MVFR 4°C / 1°C 140º variable 100º to 180º 4kt >10km - Overcast 2100ft 1034 No Significant change ULAA 201930Z 14002MPS 100V180 9999 OVC021 04/01 Q1034 R08/CLRD70 NOSIG RMK QFE775/1033
MVFR 4°C / 1°C 110º variable 060º to 150º 4kt >10km - Overcast 1900ft 1034 No Significant change ULAA 201900Z 11002MPS 060V150 9999 OVC019 04/01 Q1034 R08/CLRD70 NOSIG RMK QFE775/1033
MVFR 4°C / 1°C 120º variable 060º to 150º 4kt >10km - Overcast 1900ft 1034 No Significant change ULAA 201830Z 12002MPS 060V150 9999 OVC019 04/01 Q1034 R08/CLRD70 NOSIG RMK QFE775/1033
MVFR 5°C / 1°C 110º variable 070º to 140º 6kt >10km - Overcast 1900ft 1035 No Significant change ULAA 201800Z 11003MPS 070V140 9999 OVC019 05/01 Q1035 R08/CLRD70 NOSIG RMK QFE775/1033
MVFR 5°C / 1°C 100º variable 060º to 160º 6kt >10km - Overcast 2100ft 1035 No Significant change ULAA 201730Z 10003MPS 060V160 9999 OVC021 05/01 Q1035 R08/CLRD70 NOSIG RMK QFE775/1033
MVFR 5°C / 1°C 110º variable 080º to 140º 6kt >10km - Overcast 2100ft 1035 No Significant change ULAA 201700Z 11003MPS 080V140 9999 OVC021 05/01 Q1035 R08/CLRD70 NOSIG RMK QFE775/1033
MVFR 5°C / 1°C 120º variable 080º to 160º 6kt >10km - Overcast 2100ft 1035 No Significant change ULAA 201630Z 12003MPS 080V160 9999 OVC021 05/01 Q1035 R08/CLRD70 NOSIG RMK QFE775/1033
MVFR 6°C / 1°C 110º variable 080º to 140º 4kt >10km - Overcast 2200ft 1035 No Significant change ULAA 201600Z 11002MPS 080V140 9999 OVC022 06/01 Q1035 R08/CLRD70 NOSIG RMK QFE775/1033
MVFR 6°C / 1°C 90º variable 060º to 130º 6kt >10km - Overcast 2400ft 1035 No Significant change ULAA 201530Z 09003MPS 060V130 9999 OVC024 06/01 Q1035 R08/CLRD70 NOSIG RMK QFE775/1033
MVFR 6°C / 1°C 110º variable 070º to 160º 4kt >10km - Overcast 2500ft 1035 No Significant change ULAA 201500Z 11002MPS 070V160 9999 OVC025 06/01 Q1035 R08/CLRD70 NOSIG RMK QFE775/1033
MVFR 6°C / 1°C 80º 4kt >10km - Broken Clouds 2700ft 1035 No Significant change ULAA 201430Z 08002MPS 9999 BKN027 06/01 Q1035 R08/CLRD70 NOSIG RMK QFE775/1034
MVFR 7°C / 1°C 80º variable 050º to 120º 8kt >10km - Broken Clouds 2900ft 1035 No Significant change ULAA 201400Z 08004MPS 050V120 9999 BKN029 07/01 Q1035 R08/CLRD70 NOSIG RMK QFE775/1034
MVFR 7°C / 1°C 80º variable 030º to 110º 4kt >10km - Broken Clouds 2800ft 1035 No Significant change ULAA 201330Z 08002MPS 030V110 9999 BKN028CB 07/01 Q1035 R08/CLRD70 NOSIG RMK QFE775/1034
MVFR 7°C / 1°C 100º variable 040º to 150º 6kt >10km - Broken Clouds 2800ft 1035 No Significant change ULAA 201300Z 10003MPS 040V150 9999 BKN028CB 07/01 Q1035 R08/CLRD70 NOSIG RMK QFE775/1034
MVFR 8°C / 1°C 80º variable 050º to 110º 6kt >10km - Broken Clouds 2800ft 1035 No Significant change. Runway 08: Damp, 51-100% contamination with <1mm, friction coefficient 0.65. ULAA 201230Z 08003MPS 050V110 9999 BKN028CB 08/01 Q1035 R08/190065 NOSIG RMK QFE775/1034
MVFR 8°C / 1°C 90º variable 050º to 140º 8kt >10km - Broken Clouds 2800ft 1035 No Significant change. Runway 08: Damp, 51-100% contamination with <1mm, friction coefficient 0.65. ULAA 201200Z 09004MPS 050V140 9999 BKN028CB 08/01 Q1035 R08/190065 NOSIG RMK QFE776/1034
MVFR 8°C / 0°C 100º variable 040º to 150º 6kt >10km - Broken Clouds 2800ft 1036 No Significant change. Runway 08: Damp, 51-100% contamination with <1mm, friction coefficient 0.65. ULAA 201130Z 10003MPS 040V150 9999 BKN028CB 08/00 Q1036 R08/190065 NOSIG RMK QFE776/1034
VFR 8°C / 1°C variable 2kt >10km - Broken Clouds 3100ft 1036 No Significant change. Runway 08: Damp, 51-100% contamination with <1mm, friction coefficient 0.65. ULAA 201100Z VRB01MPS 9999 BKN031CB 08/01 Q1036 R08/190065 NOSIG RMK QFE776/1035
MVFR 7°C / 2°C 80º variable 040º to 110º 6kt >10km - Broken Clouds 2500ft 1036 No Significant change. Runway 08: Damp, 51-100% contamination with <1mm, friction coefficient 0.65. ULAA 201030Z 08003MPS 040V110 9999 BKN025CB 07/02 Q1036 R08/190065 NOSIG RMK QFE776/1035
MVFR 8°C / 3°C 20º variable 340º to 080º 4kt >10km - Broken Clouds 3000ft 1036 No Significant change. Runway 08: Damp, 51-100% contamination with <1mm, friction coefficient 0.65. ULAA 201000Z 02002MPS 340V080 9999 BKN030CB 08/03 Q1036 R08/190065 NOSIG RMK QFE776/1035
MVFR 7°C / 2°C 90º variable 030º to 160º 6kt >10km - Broken Clouds 1600ft 1036 No Significant change. Runway 08: Damp, 51-100% contamination with <1mm, friction coefficient 0.65. ULAA 200930Z 09003MPS 030V160 9999 BKN016CB 07/02 Q1036 R08/190065 NOSIG RMK QFE776/1035
MVFR 6°C / 3°C 50º variable 020º to 080º 4kt >10km Light Showers Rain 3.00mm precipitation Vertical Visibility of 0ft. 1037 No Significant change. Runway 08: Damp, 51-100% contamination with <1mm, friction coefficient 0.65. ULAA 200900Z 05002MPS 020V080 9999 -SHRA BKN018CB 06/03 Q1037 R08/190065 NOSIG RMK QFE776/1035
MVFR 8°C / 2°C 110º variable 060º to 200º 4kt >10km - Broken Clouds 2400ft 1036 No Significant change. Runway 08: Damp, 51-100% contamination with <1mm, friction coefficient 0.65. ULAA 200830Z 11002MPS 060V200 9999 BKN024CB 08/02 Q1036 R08/190065 NOSIG RMK QFE776/1035
VFR 7°C / 0°C 100º variable 360º to 160º 4kt >10km - Broken Clouds 3100ft 1036 No Significant change. Runway 08: Damp, 51-100% contamination with <1mm, friction coefficient 0.65. ULAA 200800Z 10002MPS 360V160 9999 BKN031 07/00 Q1036 R08/190065 NOSIG RMK QFE776/1035

MVFR

4°C / 1°C

[Meer]
Wind 140º variable 100º to 180º 4kt
Zicht >10km
Weer -
Wolken Overcast 2100ft
Luchtdruk 1034
Wijzigen No Significant change
Ruw ULAA 201930Z 14002MPS 100V180 9999 OVC021 04/01 Q1034 R08/CLRD70 NOSIG RMK QFE775/1033

MVFR

4°C / 1°C

[Meer]
Wind 110º variable 060º to 150º 4kt
Zicht >10km
Weer -
Wolken Overcast 1900ft
Luchtdruk 1034
Wijzigen No Significant change
Ruw ULAA 201900Z 11002MPS 060V150 9999 OVC019 04/01 Q1034 R08/CLRD70 NOSIG RMK QFE775/1033

MVFR

4°C / 1°C

[Meer]
Wind 120º variable 060º to 150º 4kt
Zicht >10km
Weer -
Wolken Overcast 1900ft
Luchtdruk 1034
Wijzigen No Significant change
Ruw ULAA 201830Z 12002MPS 060V150 9999 OVC019 04/01 Q1034 R08/CLRD70 NOSIG RMK QFE775/1033

MVFR

5°C / 1°C

[Meer]
Wind 110º variable 070º to 140º 6kt
Zicht >10km
Weer -
Wolken Overcast 1900ft
Luchtdruk 1035
Wijzigen No Significant change
Ruw ULAA 201800Z 11003MPS 070V140 9999 OVC019 05/01 Q1035 R08/CLRD70 NOSIG RMK QFE775/1033

MVFR

5°C / 1°C

[Meer]
Wind 100º variable 060º to 160º 6kt
Zicht >10km
Weer -
Wolken Overcast 2100ft
Luchtdruk 1035
Wijzigen No Significant change
Ruw ULAA 201730Z 10003MPS 060V160 9999 OVC021 05/01 Q1035 R08/CLRD70 NOSIG RMK QFE775/1033

MVFR

5°C / 1°C

[Meer]
Wind 110º variable 080º to 140º 6kt
Zicht >10km
Weer -
Wolken Overcast 2100ft
Luchtdruk 1035
Wijzigen No Significant change
Ruw ULAA 201700Z 11003MPS 080V140 9999 OVC021 05/01 Q1035 R08/CLRD70 NOSIG RMK QFE775/1033

MVFR

5°C / 1°C

[Meer]
Wind 120º variable 080º to 160º 6kt
Zicht >10km
Weer -
Wolken Overcast 2100ft
Luchtdruk 1035
Wijzigen No Significant change
Ruw ULAA 201630Z 12003MPS 080V160 9999 OVC021 05/01 Q1035 R08/CLRD70 NOSIG RMK QFE775/1033

MVFR

6°C / 1°C

[Meer]
Wind 110º variable 080º to 140º 4kt
Zicht >10km
Weer -
Wolken Overcast 2200ft
Luchtdruk 1035
Wijzigen No Significant change
Ruw ULAA 201600Z 11002MPS 080V140 9999 OVC022 06/01 Q1035 R08/CLRD70 NOSIG RMK QFE775/1033

MVFR

6°C / 1°C

[Meer]
Wind 90º variable 060º to 130º 6kt
Zicht >10km
Weer -
Wolken Overcast 2400ft
Luchtdruk 1035
Wijzigen No Significant change
Ruw ULAA 201530Z 09003MPS 060V130 9999 OVC024 06/01 Q1035 R08/CLRD70 NOSIG RMK QFE775/1033

MVFR

6°C / 1°C

[Meer]
Wind 110º variable 070º to 160º 4kt
Zicht >10km
Weer -
Wolken Overcast 2500ft
Luchtdruk 1035
Wijzigen No Significant change
Ruw ULAA 201500Z 11002MPS 070V160 9999 OVC025 06/01 Q1035 R08/CLRD70 NOSIG RMK QFE775/1033

MVFR

6°C / 1°C

[Meer]
Wind 80º 4kt
Zicht >10km
Weer -
Wolken Broken Clouds 2700ft
Luchtdruk 1035
Wijzigen No Significant change
Ruw ULAA 201430Z 08002MPS 9999 BKN027 06/01 Q1035 R08/CLRD70 NOSIG RMK QFE775/1034

MVFR

7°C / 1°C

[Meer]
Wind 80º variable 050º to 120º 8kt
Zicht >10km
Weer -
Wolken Broken Clouds 2900ft
Luchtdruk 1035
Wijzigen No Significant change
Ruw ULAA 201400Z 08004MPS 050V120 9999 BKN029 07/01 Q1035 R08/CLRD70 NOSIG RMK QFE775/1034

MVFR

7°C / 1°C

[Meer]
Wind 80º variable 030º to 110º 4kt
Zicht >10km
Weer -
Wolken Broken Clouds 2800ft
Luchtdruk 1035
Wijzigen No Significant change
Ruw ULAA 201330Z 08002MPS 030V110 9999 BKN028CB 07/01 Q1035 R08/CLRD70 NOSIG RMK QFE775/1034

MVFR

7°C / 1°C

[Meer]
Wind 100º variable 040º to 150º 6kt
Zicht >10km
Weer -
Wolken Broken Clouds 2800ft
Luchtdruk 1035
Wijzigen No Significant change
Ruw ULAA 201300Z 10003MPS 040V150 9999 BKN028CB 07/01 Q1035 R08/CLRD70 NOSIG RMK QFE775/1034

MVFR

8°C / 1°C

[Meer]
Wind 80º variable 050º to 110º 6kt
Zicht >10km
Weer -
Wolken Broken Clouds 2800ft
Luchtdruk 1035
Wijzigen No Significant change. Runway 08: Damp, 51-100% contamination with <1mm, friction coefficient 0.65.
Ruw ULAA 201230Z 08003MPS 050V110 9999 BKN028CB 08/01 Q1035 R08/190065 NOSIG RMK QFE775/1034

MVFR

8°C / 1°C

[Meer]
Wind 90º variable 050º to 140º 8kt
Zicht >10km
Weer -
Wolken Broken Clouds 2800ft
Luchtdruk 1035
Wijzigen No Significant change. Runway 08: Damp, 51-100% contamination with <1mm, friction coefficient 0.65.
Ruw ULAA 201200Z 09004MPS 050V140 9999 BKN028CB 08/01 Q1035 R08/190065 NOSIG RMK QFE776/1034

MVFR

8°C / 0°C

[Meer]
Wind 100º variable 040º to 150º 6kt
Zicht >10km
Weer -
Wolken Broken Clouds 2800ft
Luchtdruk 1036
Wijzigen No Significant change. Runway 08: Damp, 51-100% contamination with <1mm, friction coefficient 0.65.
Ruw ULAA 201130Z 10003MPS 040V150 9999 BKN028CB 08/00 Q1036 R08/190065 NOSIG RMK QFE776/1034

VFR

8°C / 1°C

[Meer]
Wind variable 2kt
Zicht >10km
Weer -
Wolken Broken Clouds 3100ft
Luchtdruk 1036
Wijzigen No Significant change. Runway 08: Damp, 51-100% contamination with <1mm, friction coefficient 0.65.
Ruw ULAA 201100Z VRB01MPS 9999 BKN031CB 08/01 Q1036 R08/190065 NOSIG RMK QFE776/1035

MVFR

7°C / 2°C

[Meer]
Wind 80º variable 040º to 110º 6kt
Zicht >10km
Weer -
Wolken Broken Clouds 2500ft
Luchtdruk 1036
Wijzigen No Significant change. Runway 08: Damp, 51-100% contamination with <1mm, friction coefficient 0.65.
Ruw ULAA 201030Z 08003MPS 040V110 9999 BKN025CB 07/02 Q1036 R08/190065 NOSIG RMK QFE776/1035

MVFR

8°C / 3°C

[Meer]
Wind 20º variable 340º to 080º 4kt
Zicht >10km
Weer -
Wolken Broken Clouds 3000ft
Luchtdruk 1036
Wijzigen No Significant change. Runway 08: Damp, 51-100% contamination with <1mm, friction coefficient 0.65.
Ruw ULAA 201000Z 02002MPS 340V080 9999 BKN030CB 08/03 Q1036 R08/190065 NOSIG RMK QFE776/1035

MVFR

7°C / 2°C

[Meer]
Wind 90º variable 030º to 160º 6kt
Zicht >10km
Weer -
Wolken Broken Clouds 1600ft
Luchtdruk 1036
Wijzigen No Significant change. Runway 08: Damp, 51-100% contamination with <1mm, friction coefficient 0.65.
Ruw ULAA 200930Z 09003MPS 030V160 9999 BKN016CB 07/02 Q1036 R08/190065 NOSIG RMK QFE776/1035

MVFR

6°C / 3°C

[Meer]
Wind 50º variable 020º to 080º 4kt
Zicht >10km
Weer Light Showers Rain 3.00mm precipitation
Wolken Vertical Visibility of 0ft.
Luchtdruk 1037
Wijzigen No Significant change. Runway 08: Damp, 51-100% contamination with <1mm, friction coefficient 0.65.
Ruw ULAA 200900Z 05002MPS 020V080 9999 -SHRA BKN018CB 06/03 Q1037 R08/190065 NOSIG RMK QFE776/1035

MVFR

8°C / 2°C

[Meer]
Wind 110º variable 060º to 200º 4kt
Zicht >10km
Weer -
Wolken Broken Clouds 2400ft
Luchtdruk 1036
Wijzigen No Significant change. Runway 08: Damp, 51-100% contamination with <1mm, friction coefficient 0.65.
Ruw ULAA 200830Z 11002MPS 060V200 9999 BKN024CB 08/02 Q1036 R08/190065 NOSIG RMK QFE776/1035

VFR

7°C / 0°C

[Meer]
Wind 100º variable 360º to 160º 4kt
Zicht >10km
Weer -
Wolken Broken Clouds 3100ft
Luchtdruk 1036
Wijzigen No Significant change. Runway 08: Damp, 51-100% contamination with <1mm, friction coefficient 0.65.
Ruw ULAA 200800Z 10002MPS 360V160 9999 BKN031 07/00 Q1036 R08/190065 NOSIG RMK QFE776/1035

TAF voor 64.6°N 40.72°O (ULAA)

From till


From till Wind 110º 6kt. Visibility 6000m. Few Clouds 500ft. Broken Clouds 1600ft.
Temporarly from till Wind variable 2kt. Visibility 305.775m. Fog . Few Clouds 200ft.
From till Wind 130º 6kt. Visibility 10km or more. Broken Clouds 2000ft.
Temporarly from till Wind 150º 6kt. Gust 17kt. Visibility 6000m. Light Showers Rain . Broken Clouds 1700ft.

Ruw: TAF ULAA 201700Z 2018/2118 11003MPS 6000 FEW005 BKN016 TEMPO 2018/2104 VRB01MPS 0300 FG FEW002 FM210600 13003MPS 9999 BKN020 TEMPO 2106/2118 15003G09MPS 6000 -SHRA BKN017CB

Huidige satelliet- en regenbeelden voor 64.6°N 40.72°O

De locatiemarkering is geplaatst op 64.6°N 40.72°O. [Meer]

Het realtime satellietbeeld combineert zichtbaar licht overdag met infraroodstraling 's nachts. 's Nachts is het beeld niet donker, omdat infraroodstraling temperatuurverschillen kan waarnemen. Helaas zijn lage wolken en mist moeilijk te onderscheiden van grondtemperaturen en kunnen dus 's nachts bijna onzichtbaar zijn. Meteosat-satellietbeelden voor Europa worden elke 5 minuten in real time bijgewerkt. De beelden van GOES-16/GOES-17 (Noord- en Zuid-Amerika) en Himawari (Azië) worden om de 10 minuten bijgewerkt.

Copyright 2021 EUMETSAT / meteoblue. / Copyright 2021 meteoblue

Radar en neerslag nowcast voor 64.6°N 40.72°O

Motregen
Licht
Matig
Zwaar
Zeer zwaar
Hail

De locatiemarkering wordt geplaatst op 64.6°N 40.72°O. Deze animation toont de neerslag radar van het afgelopen uur, maar ook de 1h verwachting. Motregen of lichte sneeuwval kan onzichtbaar zijn voor de radar. De neerslagintensiteit wordt met kleuren gecodeerd, van lichtblauw tot oranje.